EUFO2: Eufaula Lake

Data processed at Sun Feb 07 23:09:34 2016 Central Standard Time


All information presented herein is the property of the government of the United States of America and may be revised or deleted at any time without prior notice.
Dissemination of this information without the expressed written consent of the Public Affairs Office, Tulsa District U.S. Army Corps of Engineers is strictly prohibited.
These data are gathered electronically and, as presented, have not undergone any form of quality control. These data are not guaranteed to be valid or correct.
Go to home page.
Go to station list.
Go to station map.

Upstream stations:

Downstream station: Previous Day
Next Day
Current Day

Display graphics.
Display DCP transmissions.


    
    SHEF ID:       EUFO2     Eufaula Lake
    STATION TYPE:  RESERVOIR
    Flood Control Pool:  Bottom =  585.00, Top =  597.00
    
                   PRECIP ELEVATION   STORAGE   TW-ELEV    INFLOW   RELEASE  AIR-TEMP  WIND-DIRWIND-SPEED REL-HUMID SOLAR-RAD   VOLTAGE
                   INCHES      FEET      ACFT      FEET       CFS       CFS     DEG-F   DEGREES       MPH   PERCENT      W/M2     VOLTS
                     GOES      GOES      GOES      GOES  COMPRESQ    POWERQ      GOES      GOES      GOES      GOES      GOES      GOES
       (Cen)
    02/07 01:00      0.00    585.76   2213963    483.83      ----      ----     45.16    210.60      4.05     56.41      0.00     13.76
    02/07 02:00      0.00    585.75   2213045    483.74      ----      ----     44.60    232.40      6.29     60.74      0.00     13.76
    02/07 03:00      0.00    585.74   2212128    483.68      ----      ----     43.18    176.20      2.35     63.06      0.00     13.76
    02/07 04:00      0.00    585.75   2213045    483.63      ----      ----     41.76    184.80      0.59     66.73      0.00     13.75
    02/07 05:00      0.00    585.75   2213045    483.59      ----      ----     42.08    227.70      1.12     68.13      0.00     13.75
    02/07 06:00      0.00    585.76   2213963    483.54      ----      ----     42.08    251.20      2.27     68.31      0.00     13.75
    02/07 07:00      0.00    585.75   2213045    484.09      ----      ----     41.86     62.10      0.54     67.09      0.00     13.75
    02/07 08:00      0.00    585.75   2213045    487.74      ----      ----     42.64    244.30      0.98     66.67     21.00     13.75
    02/07 09:00      0.00    585.74   2212128    489.15      ----      ----     44.73    253.70      6.89     58.49    195.00     13.75
    02/07 10:00      0.00    585.76   2213963    489.46      ----      ----     48.90    231.50      6.57     52.26    329.00     13.75
    02/07 11:00      0.00    585.76   2213963    489.50      ----      ----     51.21    231.90      8.58     49.93    484.00     13.75
    02/07 12:00      0.00    585.75   2213045    489.54      ----      ----     51.98    265.90     11.50     46.76    399.00     13.76
    02/07 13:00      0.00    585.74   2212128    489.56      ----      ----     51.76    288.20      5.65     49.21    633.00     13.76
    02/07 14:00      0.00    585.73   2211211    489.51      ----      ----     53.74    284.80      6.47     44.44    563.00     13.76
    02/07 15:00      0.00    585.71   2209382    489.47      ----      ----     54.95     20.80      0.68     35.53    461.00     13.77
    02/07 16:00      0.00    585.66   2204801    489.49      ----      ----     55.94     38.90      0.53     37.48    441.00     13.77
    02/07 17:00      0.00    585.65   2203883    489.43      ----      ----     55.94     60.60      0.41     35.10    272.00     13.77
    02/07 18:00      0.00    585.66   2204801    489.05      ----      ----     54.18    347.20      0.81     33.88     74.00     13.76
    02/07 19:00      0.00    585.67   2205713    487.11      ----      ----     50.76    315.30      0.46     41.14      1.00     13.77
    02/07 20:00      0.00    585.70   2208464    486.14      ----      ----     48.88    323.60      0.94     49.26      0.00     13.77
    02/07 21:00      0.00    585.70   2208464    485.52      ----      ----     49.57    335.60      0.81     39.26      0.00     13.77
    02/07 22:00      0.00    585.73   2211211    485.08      ----      ----     48.58     17.10      0.41     49.27      0.00     13.77
    02/07 23:00      0.00    585.75   2213045    484.74      ----      ----     48.69    337.20      0.98     38.64      0.00     13.76
    02/08 00:00      ----      ----      ----      ----      ----      ----      ----      ----      ----      ----      ----      ----